sensor_id;sensor_type;location;lat;lon;timestamp;temperature;humidity
50570;DHT22;36525;49.398;7.614;2023-03-01T00:01:14;-1.50;99.90
50570;DHT22;36525;49.398;7.614;2023-03-01T00:03:43;-1.50;99.90
50570;DHT22;36525;49.398;7.614;2023-03-01T00:06:11;-1.50;99.90
50570;DHT22;36525;49.398;7.614;2023-03-01T00:08:38;-1.50;99.90
50570;DHT22;36525;49.398;7.614;2023-03-01T00:13:37;-1.50;99.90
50570;DHT22;36525;49.398;7.614;2023-03-01T00:16:05;-1.50;99.90
50570;DHT22;36525;49.398;7.614;2023-03-01T00:18:33;-1.50;99.90
50570;DHT22;36525;49.398;7.614;2023-03-01T00:21:00;-1.50;99.90
50570;DHT22;36525;49.398;7.614;2023-03-01T00:23:27;-1.50;99.90
50570;DHT22;36525;49.398;7.614;2023-03-01T00:25:54;-1.50;99.90
50570;DHT22;36525;49.398;7.614;2023-03-01T00:28:21;-1.60;99.90
50570;DHT22;36525;49.398;7.614;2023-03-01T00:30:48;-1.60;99.90
50570;DHT22;36525;49.398;7.614;2023-03-01T00:33:18;-1.60;99.90
50570;DHT22;36525;49.398;7.614;2023-03-01T00:35:45;-1.60;99.90
50570;DHT22;36525;49.398;7.614;2023-03-01T00:38:12;-1.60;99.90
50570;DHT22;36525;49.398;7.614;2023-03-01T00:40:39;-1.60;99.90
50570;DHT22;36525;49.398;7.614;2023-03-01T00:43:06;-1.70;99.90
50570;DHT22;36525;49.398;7.614;2023-03-01T00:45:33;-1.70;99.90
50570;DHT22;36525;49.398;7.614;2023-03-01T00:47:59;-1.70;99.90
50570;DHT22;36525;49.398;7.614;2023-03-01T00:50:26;-1.70;99.90
50570;DHT22;36525;49.398;7.614;2023-03-01T00:52:54;-1.70;99.90
50570;DHT22;36525;49.398;7.614;2023-03-01T00:55:22;-1.70;99.90
50570;DHT22;36525;49.398;7.614;2023-03-01T00:57:50;-1.70;99.90
50570;DHT22;36525;49.398;7.614;2023-03-01T01:00:17;-1.70;99.90
50570;DHT22;36525;49.398;7.614;2023-03-01T01:02:44;-1.70;99.90
50570;DHT22;36525;49.398;7.614;2023-03-01T01:05:12;-1.70;99.90
50570;DHT22;36525;49.398;7.614;2023-03-01T01:07:39;-1.80;99.90
50570;DHT22;36525;49.398;7.614;2023-03-01T01:10:06;-1.70;99.90
50570;DHT22;36525;49.398;7.614;2023-03-01T01:12:33;-1.80;99.90
50570;DHT22;36525;49.398;7.614;2023-03-01T01:15:00;-1.80;99.90
50570;DHT22;36525;49.398;7.614;2023-03-01T01:17:27;-1.80;99.90
50570;DHT22;36525;49.398;7.614;2023-03-01T01:19:54;-1.80;99.90
50570;DHT22;36525;49.398;7.614;2023-03-01T01:22:21;-1.80;99.90
50570;DHT22;36525;49.398;7.614;2023-03-01T01:24:47;-1.80;99.90
50570;DHT22;36525;49.398;7.614;2023-03-01T01:27:14;-1.80;99.90
50570;DHT22;36525;49.398;7.614;2023-03-01T01:29:41;-1.90;99.90
50570;DHT22;36525;49.398;7.614;2023-03-01T01:32:08;-1.80;99.90
50570;DHT22;36525;49.398;7.614;2023-03-01T01:34:35;-1.80;99.90
50570;DHT22;36525;49.398;7.614;2023-03-01T01:37:02;-1.80;99.90
50570;DHT22;36525;49.398;7.614;2023-03-01T01:39:29;-1.80;99.90
50570;DHT22;36525;49.398;7.614;2023-03-01T01:41:56;-1.80;99.90
50570;DHT22;36525;49.398;7.614;2023-03-01T01:44:24;-1.80;99.90
50570;DHT22;36525;49.398;7.614;2023-03-01T01:49:33;-1.80;99.90
50570;DHT22;36525;49.398;7.614;2023-03-01T01:52:08;-1.90;99.90
50570;DHT22;36525;49.398;7.614;2023-03-01T01:54:42;-1.90;99.90
50570;DHT22;36525;49.398;7.614;2023-03-01T01:57:16;-2.00;99.90
50570;DHT22;36525;49.398;7.614;2023-03-01T01:59:53;-1.90;99.90
50570;DHT22;36525;49.398;7.614;2023-03-01T02:02:21;-2.00;99.90
50570;DHT22;36525;49.398;7.614;2023-03-01T02:04:49;-2.00;99.90
50570;DHT22;36525;49.398;7.614;2023-03-01T02:07:20;-2.00;99.90
50570;DHT22;36525;49.398;7.614;2023-03-01T02:09:49;-2.00;99.90
50570;DHT22;36525;49.398;7.614;2023-03-01T02:12:17;-2.00;99.90
50570;DHT22;36525;49.398;7.614;2023-03-01T02:14:46;-2.10;99.90
50570;DHT22;36525;49.398;7.614;2023-03-01T02:17:13;-2.10;99.90
50570;DHT22;36525;49.398;7.614;2023-03-01T02:19:44;-2.00;99.90
50570;DHT22;36525;49.398;7.614;2023-03-01T02:22:17;-2.00;99.90
50570;DHT22;36525;49.398;7.614;2023-03-01T02:25:04;-2.00;99.90
50570;DHT22;36525;49.398;7.614;2023-03-01T02:27:46;-2.10;99.90
50570;DHT22;36525;49.398;7.614;2023-03-01T02:30:20;-2.10;99.90
50570;DHT22;36525;49.398;7.614;2023-03-01T02:32:47;-2.10;99.90
50570;DHT22;36525;49.398;7.614;2023-03-01T02:35:15;-2.10;99.90
50570;DHT22;36525;49.398;7.614;2023-03-01T02:37:43;-2.20;99.90
50570;DHT22;36525;49.398;7.614;2023-03-01T02:40:11;-2.20;99.90
50570;DHT22;36525;49.398;7.614;2023-03-01T02:42:45;-2.20;99.90
50570;DHT22;36525;49.398;7.614;2023-03-01T02:45:16;-2.20;99.90
50570;DHT22;36525;49.398;7.614;2023-03-01T02:47:43;-2.20;99.90
50570;DHT22;36525;49.398;7.614;2023-03-01T02:50:25;-2.30;99.90
50570;DHT22;36525;49.398;7.614;2023-03-01T02:53:08;-2.30;99.90
50570;DHT22;36525;49.398;7.614;2023-03-01T02:55:38;-2.30;99.90
50570;DHT22;36525;49.398;7.614;2023-03-01T02:58:05;-2.20;99.90
50570;DHT22;36525;49.398;7.614;2023-03-01T03:00:38;-2.30;99.90
50570;DHT22;36525;49.398;7.614;2023-03-01T03:03:13;-2.30;99.90
50570;DHT22;36525;49.398;7.614;2023-03-01T03:05:42;-2.30;99.90
50570;DHT22;36525;49.398;7.614;2023-03-01T03:08:09;-2.40;99.90
50570;DHT22;36525;49.398;7.614;2023-03-01T03:10:38;-2.40;99.90
50570;DHT22;36525;49.398;7.614;2023-03-01T03:13:07;-2.40;99.90
50570;DHT22;36525;49.398;7.614;2023-03-01T03:15:36;-2.40;99.90
50570;DHT22;36525;49.398;7.614;2023-03-01T03:18:04;-2.40;99.90
50570;DHT22;36525;49.398;7.614;2023-03-01T03:20:36;-2.40;99.90
50570;DHT22;36525;49.398;7.614;2023-03-01T03:23:03;-2.40;99.90
50570;DHT22;36525;49.398;7.614;2023-03-01T03:25:30;-2.40;99.90
50570;DHT22;36525;49.398;7.614;2023-03-01T03:27:57;-2.40;99.90
50570;DHT22;36525;49.398;7.614;2023-03-01T03:30:25;-2.40;99.90
50570;DHT22;36525;49.398;7.614;2023-03-01T03:32:56;-2.40;99.90
50570;DHT22;36525;49.398;7.614;2023-03-01T03:35:33;-2.40;99.90
50570;DHT22;36525;49.398;7.614;2023-03-01T03:38:06;-2.40;99.90
50570;DHT22;36525;49.398;7.614;2023-03-01T03:40:37;-2.40;99.90
50570;DHT22;36525;49.398;7.614;2023-03-01T03:43:08;-2.40;99.90
50570;DHT22;36525;49.398;7.614;2023-03-01T03:45:46;-2.40;99.90
50570;DHT22;36525;49.398;7.614;2023-03-01T03:48:13;-2.40;99.90
50570;DHT22;36525;49.398;7.614;2023-03-01T03:50:40;-2.40;99.90
50570;DHT22;36525;49.398;7.614;2023-03-01T03:53:09;-2.40;99.90
50570;DHT22;36525;49.398;7.614;2023-03-01T03:55:37;-2.40;99.90
50570;DHT22;36525;49.398;7.614;2023-03-01T03:58:08;-2.50;99.90
50570;DHT22;36525;49.398;7.614;2023-03-01T04:00:43;-2.50;99.90
50570;DHT22;36525;49.398;7.614;2023-03-01T04:03:12;-2.50;99.90
50570;DHT22;36525;49.398;7.614;2023-03-01T04:05:40;-2.50;99.90
50570;DHT22;36525;49.398;7.614;2023-03-01T04:08:07;-2.50;99.90
50570;DHT22;36525;49.398;7.614;2023-03-01T04:10:43;-2.60;99.90
50570;DHT22;36525;49.398;7.614;2023-03-01T04:13:15;-2.50;99.90
50570;DHT22;36525;49.398;7.614;2023-03-01T04:15:49;-2.50;99.90
50570;DHT22;36525;49.398;7.614;2023-03-01T04:18:18;-2.60;99.90
50570;DHT22;36525;49.398;7.614;2023-03-01T04:20:46;-2.60;99.90
50570;DHT22;36525;49.398;7.614;2023-03-01T04:23:14;-2.60;99.90
50570;DHT22;36525;49.398;7.614;2023-03-01T04:25:45;-2.70;99.90
50570;DHT22;36525;49.398;7.614;2023-03-01T04:28:27;-2.70;99.90
50570;DHT22;36525;49.398;7.614;2023-03-01T04:31:02;-2.70;99.90
50570;DHT22;36525;49.398;7.614;2023-03-01T04:33:40;-2.80;99.90
50570;DHT22;36525;49.398;7.614;2023-03-01T04:36:07;-2.80;99.90
50570;DHT22;36525;49.398;7.614;2023-03-01T04:38:36;-2.80;99.90
50570;DHT22;36525;49.398;7.614;2023-03-01T04:41:06;-2.80;99.90
50570;DHT22;36525;49.398;7.614;2023-03-01T04:43:34;-2.90;99.90
50570;DHT22;36525;49.398;7.614;2023-03-01T04:46:02;-2.90;99.90
50570;DHT22;36525;49.398;7.614;2023-03-01T04:48:31;-2.90;99.90
50570;DHT22;36525;49.398;7.614;2023-03-01T04:50:59;-2.90;99.90
50570;DHT22;36525;49.398;7.614;2023-03-01T04:53:26;-2.90;99.90
50570;DHT22;36525;49.398;7.614;2023-03-01T04:55:54;-2.90;99.90
50570;DHT22;36525;49.398;7.614;2023-03-01T04:58:23;-2.90;99.90
50570;DHT22;36525;49.398;7.614;2023-03-01T05:00:53;-2.90;99.90
50570;DHT22;36525;49.398;7.614;2023-03-01T05:03:21;-2.90;99.90
50570;DHT22;36525;49.398;7.614;2023-03-01T05:05:49;-3.00;99.90
50570;DHT22;36525;49.398;7.614;2023-03-01T05:08:17;-3.10;99.90
50570;DHT22;36525;49.398;7.614;2023-03-01T05:10:51;-3.10;99.90
50570;DHT22;36525;49.398;7.614;2023-03-01T05:13:18;-3.20;99.90
50570;DHT22;36525;49.398;7.614;2023-03-01T05:15:56;-3.20;99.90
50570;DHT22;36525;49.398;7.614;2023-03-01T05:18:25;-3.10;99.90
50570;DHT22;36525;49.398;7.614;2023-03-01T05:20:53;-3.10;99.90
50570;DHT22;36525;49.398;7.614;2023-03-01T05:23:27;-3.10;99.90
50570;DHT22;36525;49.398;7.614;2023-03-01T05:25:56;-3.10;99.90
50570;DHT22;36525;49.398;7.614;2023-03-01T05:28:24;-3.10;99.90
50570;DHT22;36525;49.398;7.614;2023-03-01T05:30:51;-3.10;99.90
50570;DHT22;36525;49.398;7.614;2023-03-01T05:33:18;-3.10;99.90
50570;DHT22;36525;49.398;7.614;2023-03-01T05:35:45;-3.10;99.90
50570;DHT22;36525;49.398;7.614;2023-03-01T05:38:15;-3.10;99.90
50570;DHT22;36525;49.398;7.614;2023-03-01T05:40:44;-3.10;99.90
50570;DHT22;36525;49.398;7.614;2023-03-01T05:43:13;-3.10;99.90
50570;DHT22;36525;49.398;7.614;2023-03-01T05:45:41;-3.10;99.90
50570;DHT22;36525;49.398;7.614;2023-03-01T05:48:09;-3.20;99.90
50570;DHT22;36525;49.398;7.614;2023-03-01T05:50:38;-3.10;99.90
50570;DHT22;36525;49.398;7.614;2023-03-01T05:53:10;-3.10;99.90
50570;DHT22;36525;49.398;7.614;2023-03-01T05:55:45;-3.20;99.90
50570;DHT22;36525;49.398;7.614;2023-03-01T05:58:15;-3.10;99.90
50570;DHT22;36525;49.398;7.614;2023-03-01T06:00:44;-3.10;99.90
50570;DHT22;36525;49.398;7.614;2023-03-01T06:03:12;-3.10;99.90
50570;DHT22;36525;49.398;7.614;2023-03-01T06:05:41;-3.10;99.90
50570;DHT22;36525;49.398;7.614;2023-03-01T06:08:09;-3.10;99.90
50570;DHT22;36525;49.398;7.614;2023-03-01T06:10:37;-3.00;99.90
50570;DHT22;36525;49.398;7.614;2023-03-01T06:13:04;-3.00;99.90
50570;DHT22;36525;49.398;7.614;2023-03-01T06:15:31;-3.00;99.90
50570;DHT22;36525;49.398;7.614;2023-03-01T06:17:58;-2.90;99.90
50570;DHT22;36525;49.398;7.614;2023-03-01T06:20:26;-2.80;99.90
50570;DHT22;36525;49.398;7.614;2023-03-01T06:22:54;-2.80;99.90
50570;DHT22;36525;49.398;7.614;2023-03-01T06:25:22;-2.80;99.90
50570;DHT22;36525;49.398;7.614;2023-03-01T06:27:50;-2.60;99.90
50570;DHT22;36525;49.398;7.614;2023-03-01T06:30:19;-2.60;99.90
50570;DHT22;36525;49.398;7.614;2023-03-01T06:32:47;-2.60;99.90
50570;DHT22;36525;49.398;7.614;2023-03-01T06:35:15;-2.50;99.90
50570;DHT22;36525;49.398;7.614;2023-03-01T06:37:46;-2.50;99.90
50570;DHT22;36525;49.398;7.614;2023-03-01T06:40:14;-2.40;99.90
50570;DHT22;36525;49.398;7.614;2023-03-01T06:42:42;-2.30;99.90
50570;DHT22;36525;49.398;7.614;2023-03-01T06:45:10;-2.30;99.90
50570;DHT22;36525;49.398;7.614;2023-03-01T06:47:40;-2.20;99.90
50570;DHT22;36525;49.398;7.614;2023-03-01T06:50:07;-2.10;99.90
50570;DHT22;36525;49.398;7.614;2023-03-01T06:52:35;-2.10;99.90
50570;DHT22;36525;49.398;7.614;2023-03-01T06:55:02;-2.10;99.90
50570;DHT22;36525;49.398;7.614;2023-03-01T06:57:29;-2.00;99.90
50570;DHT22;36525;49.398;7.614;2023-03-01T06:59:56;-2.00;99.90
50570;DHT22;36525;49.398;7.614;2023-03-01T07:02:23;-1.90;99.90
50570;DHT22;36525;49.398;7.614;2023-03-01T07:04:50;-1.90;99.90
50570;DHT22;36525;49.398;7.614;2023-03-01T07:07:17;-1.80;99.90
50570;DHT22;36525;49.398;7.614;2023-03-01T07:09:44;-1.80;99.90
50570;DHT22;36525;49.398;7.614;2023-03-01T07:12:11;-1.80;99.90
50570;DHT22;36525;49.398;7.614;2023-03-01T07:14:39;-1.60;99.90
50570;DHT22;36525;49.398;7.614;2023-03-01T07:17:05;-1.60;99.90
50570;DHT22;36525;49.398;7.614;2023-03-01T07:19:32;-1.60;99.90
50570;DHT22;36525;49.398;7.614;2023-03-01T07:21:59;-1.60;99.90
50570;DHT22;36525;49.398;7.614;2023-03-01T07:24:26;-1.50;99.90
50570;DHT22;36525;49.398;7.614;2023-03-01T07:26:53;-1.50;99.90
50570;DHT22;36525;49.398;7.614;2023-03-01T07:29:20;-1.40;99.90
50570;DHT22;36525;49.398;7.614;2023-03-01T07:31:47;-1.40;99.90
50570;DHT22;36525;49.398;7.614;2023-03-01T07:34:15;-1.40;99.90
50570;DHT22;36525;49.398;7.614;2023-03-01T07:36:42;-1.40;99.90
50570;DHT22;36525;49.398;7.614;2023-03-01T07:39:11;-1.30;99.90
50570;DHT22;36525;49.398;7.614;2023-03-01T07:41:38;-1.30;99.90
50570;DHT22;36525;49.398;7.614;2023-03-01T07:44:06;-1.30;99.90
50570;DHT22;36525;49.398;7.614;2023-03-01T07:46:33;-1.30;99.90
50570;DHT22;36525;49.398;7.614;2023-03-01T07:48:59;-1.20;99.90
50570;DHT22;36525;49.398;7.614;2023-03-01T07:51:26;-1.20;99.90
50570;DHT22;36525;49.398;7.614;2023-03-01T07:53:53;-1.10;99.90
50570;DHT22;36525;49.398;7.614;2023-03-01T07:56:20;-0.90;99.90
50570;DHT22;36525;49.398;7.614;2023-03-01T07:58:48;-0.70;99.90
50570;DHT22;36525;49.398;7.614;2023-03-01T08:01:17;-0.40;99.90
50570;DHT22;36525;49.398;7.614;2023-03-01T08:03:46;0.00;99.90
50570;DHT22;36525;49.398;7.614;2023-03-01T08:06:14;0.20;99.90
50570;DHT22;36525;49.398;7.614;2023-03-01T08:08:42;0.30;99.90
50570;DHT22;36525;49.398;7.614;2023-03-01T08:11:13;0.50;99.90
50570;DHT22;36525;49.398;7.614;2023-03-01T08:13:41;0.70;99.90
50570;DHT22;36525;49.398;7.614;2023-03-01T08:16:13;1.00;99.90
50570;DHT22;36525;49.398;7.614;2023-03-01T08:18:41;1.00;99.90
50570;DHT22;36525;49.398;7.614;2023-03-01T08:21:10;1.20;99.90
50570;DHT22;36525;49.398;7.614;2023-03-01T08:23:38;1.50;99.90
50570;DHT22;36525;49.398;7.614;2023-03-01T08:28:36;1.80;99.90
50570;DHT22;36525;49.398;7.614;2023-03-01T08:31:03;1.90;99.90
50570;DHT22;36525;49.398;7.614;2023-03-01T08:33:39;2.30;99.90
50570;DHT22;36525;49.398;7.614;2023-03-01T08:36:06;2.60;99.90
50570;DHT22;36525;49.398;7.614;2023-03-01T08:38:34;2.60;99.90
50570;DHT22;36525;49.398;7.614;2023-03-01T08:41:01;2.40;99.90
50570;DHT22;36525;49.398;7.614;2023-03-01T08:43:29;2.50;99.90
50570;DHT22;36525;49.398;7.614;2023-03-01T08:45:56;2.20;99.90
50570;DHT22;36525;49.398;7.614;2023-03-01T08:48:23;2.60;99.90
50570;DHT22;36525;49.398;7.614;2023-03-01T08:50:50;2.60;99.90
50570;DHT22;36525;49.398;7.614;2023-03-01T08:53:17;2.70;99.90
50570;DHT22;36525;49.398;7.614;2023-03-01T08:55:44;2.60;99.90
50570;DHT22;36525;49.398;7.614;2023-03-01T08:58:14;3.00;99.90
50570;DHT22;36525;49.398;7.614;2023-03-01T09:00:41;3.00;99.90
50570;DHT22;36525;49.398;7.614;2023-03-01T09:03:08;3.10;99.90
50570;DHT22;36525;49.398;7.614;2023-03-01T09:05:35;3.00;99.90
50570;DHT22;36525;49.398;7.614;2023-03-01T09:08:03;2.90;99.90
50570;DHT22;36525;49.398;7.614;2023-03-01T09:10:30;2.50;99.90
50570;DHT22;36525;49.398;7.614;2023-03-01T09:12:58;2.70;99.90
50570;DHT22;36525;49.398;7.614;2023-03-01T09:15:25;2.80;99.90
50570;DHT22;36525;49.398;7.614;2023-03-01T09:17:52;2.80;99.90
50570;DHT22;36525;49.398;7.614;2023-03-01T09:20:19;2.30;99.90
50570;DHT22;36525;49.398;7.614;2023-03-01T09:22:46;2.20;99.90
50570;DHT22;36525;49.398;7.614;2023-03-01T09:25:13;2.20;99.90
50570;DHT22;36525;49.398;7.614;2023-03-01T09:27:40;2.10;99.90
50570;DHT22;36525;49.398;7.614;2023-03-01T09:30:07;2.10;99.90
50570;DHT22;36525;49.398;7.614;2023-03-01T09:32:34;2.10;99.90
50570;DHT22;36525;49.398;7.614;2023-03-01T09:35:01;2.20;99.90
50570;DHT22;36525;49.398;7.614;2023-03-01T09:37:32;2.30;99.90
50570;DHT22;36525;49.398;7.614;2023-03-01T09:39:59;2.30;99.90
50570;DHT22;36525;49.398;7.614;2023-03-01T09:42:27;2.30;99.90
50570;DHT22;36525;49.398;7.614;2023-03-01T09:44:56;2.30;99.90
50570;DHT22;36525;49.398;7.614;2023-03-01T09:47:31;2.40;99.90
50570;DHT22;36525;49.398;7.614;2023-03-01T09:50:04;2.40;99.90
50570;DHT22;36525;49.398;7.614;2023-03-01T09:52:39;2.30;99.90
50570;DHT22;36525;49.398;7.614;2023-03-01T09:55:12;2.40;99.90
50570;DHT22;36525;49.398;7.614;2023-03-01T09:57:43;2.40;99.90
50570;DHT22;36525;49.398;7.614;2023-03-01T10:03:06;2.40;99.90
50570;DHT22;36525;49.398;7.614;2023-03-01T10:11:03;2.60;99.90
50570;DHT22;36525;49.398;7.614;2023-03-01T10:13:45;2.50;99.90
50570;DHT22;36525;49.398;7.614;2023-03-01T10:16:16;2.60;99.90
50570;DHT22;36525;49.398;7.614;2023-03-01T10:18:48;2.90;99.90
50570;DHT22;36525;49.398;7.614;2023-03-01T10:21:20;2.70;99.90
50570;DHT22;36525;49.398;7.614;2023-03-01T10:23:49;2.60;99.90
50570;DHT22;36525;49.398;7.614;2023-03-01T10:29:01;2.90;99.90
50570;DHT22;36525;49.398;7.614;2023-03-01T10:34:15;2.90;99.90
50570;DHT22;36525;49.398;7.614;2023-03-01T10:36:44;2.90;99.90
50570;DHT22;36525;49.398;7.614;2023-03-01T10:39:24;2.90;99.90
50570;DHT22;36525;49.398;7.614;2023-03-01T10:41:54;3.10;99.90
50570;DHT22;36525;49.398;7.614;2023-03-01T10:44:38;3.20;99.90
50570;DHT22;36525;49.398;7.614;2023-03-01T10:47:12;3.10;99.90
50570;DHT22;36525;49.398;7.614;2023-03-01T10:52:23;3.00;99.90
50570;DHT22;36525;49.398;7.614;2023-03-01T10:54:53;3.20;99.90
50570;DHT22;36525;49.398;7.614;2023-03-01T10:57:32;3.30;99.90
50570;DHT22;36525;49.398;7.614;2023-03-01T11:00:18;3.30;99.90
50570;DHT22;36525;49.398;7.614;2023-03-01T11:05:26;3.40;99.90
50570;DHT22;36525;49.398;7.614;2023-03-01T11:07:57;3.40;99.90
50570;DHT22;36525;49.398;7.614;2023-03-01T11:10:26;3.40;99.90
50570;DHT22;36525;49.398;7.614;2023-03-01T11:15:35;3.40;99.90
50570;DHT22;36525;49.398;7.614;2023-03-01T11:18:02;3.50;99.90
50570;DHT22;36525;49.398;7.614;2023-03-01T11:20:39;3.50;99.90
50570;DHT22;36525;49.398;7.614;2023-03-01T11:23:13;3.60;99.90
50570;DHT22;36525;49.398;7.614;2023-03-01T11:25:42;3.70;99.90
50570;DHT22;36525;49.398;7.614;2023-03-01T11:28:12;3.70;99.90
50570;DHT22;36525;49.398;7.614;2023-03-01T11:30:44;3.60;99.90
50570;DHT22;36525;49.398;7.614;2023-03-01T11:42:10;3.70;99.90
50570;DHT22;36525;49.398;7.614;2023-03-01T11:44:46;3.80;99.90
50570;DHT22;36525;49.398;7.614;2023-03-01T11:50:02;3.70;99.90
50570;DHT22;36525;49.398;7.614;2023-03-01T12:05:53;3.90;99.90
50570;DHT22;36525;49.398;7.614;2023-03-01T12:25:16;4.50;99.90
50570;DHT22;36525;49.398;7.614;2023-03-01T12:33:22;4.90;99.90
50570;DHT22;36525;49.398;7.614;2023-03-01T12:38:49;4.70;99.90
50570;DHT22;36525;49.398;7.614;2023-03-01T12:41:27;4.70;99.90
50570;DHT22;36525;49.398;7.614;2023-03-01T12:47:23;4.70;99.90
50570;DHT22;36525;49.398;7.614;2023-03-01T12:49:44;4.70;99.90
50570;DHT22;36525;49.398;7.614;2023-03-01T12:52:54;4.80;99.90
50570;DHT22;36525;49.398;7.614;2023-03-01T12:58:32;5.10;99.90
50570;DHT22;36525;49.398;7.614;2023-03-01T13:01:16;5.20;99.90
50570;DHT22;36525;49.398;7.614;2023-03-01T13:04:18;5.30;99.90
50570;DHT22;36525;49.398;7.614;2023-03-01T13:17:55;5.70;99.90
50570;DHT22;36525;49.398;7.614;2023-03-01T13:25:34;6.00;99.90
50570;DHT22;36525;49.398;7.614;2023-03-01T13:31:05;6.20;99.90
50570;DHT22;36525;49.398;7.614;2023-03-01T13:33:37;7.20;99.90
50570;DHT22;36525;49.398;7.614;2023-03-01T13:36:08;8.90;99.90
50570;DHT22;36525;49.398;7.614;2023-03-01T13:47:08;11.10;92.60
50570;DHT22;36525;49.398;7.614;2023-03-01T13:49:46;12.20;91.30
50570;DHT22;36525;49.398;7.614;2023-03-01T13:57:42;13.90;87.00
50570;DHT22;36525;49.398;7.614;2023-03-01T14:03:13;12.60;83.60
50570;DHT22;36525;49.398;7.614;2023-03-01T14:09:03;12.50;84.60
50570;DHT22;36525;49.398;7.614;2023-03-01T14:14:46;12.80;84.00
50570;DHT22;36525;49.398;7.614;2023-03-01T14:17:31;12.00;84.40
50570;DHT22;36525;49.398;7.614;2023-03-01T14:20:07;12.40;84.90
50570;DHT22;36525;49.398;7.614;2023-03-01T14:22:38;12.30;84.40
50570;DHT22;36525;49.398;7.614;2023-03-01T14:30:45;14.10;82.10
50570;DHT22;36525;49.398;7.614;2023-03-01T14:36:01;13.40;82.40
50570;DHT22;36525;49.398;7.614;2023-03-01T14:38:43;14.30;80.50
50570;DHT22;36525;49.398;7.614;2023-03-01T14:41:15;14.00;80.40
50570;DHT22;36525;49.398;7.614;2023-03-01T14:43:46;14.80;80.30
50570;DHT22;36525;49.398;7.614;2023-03-01T14:46:18;12.60;80.10
50570;DHT22;36525;49.398;7.614;2023-03-01T14:49:04;13.20;80.00
50570;DHT22;36525;49.398;7.614;2023-03-01T14:51:39;13.40;80.00
50570;DHT22;36525;49.398;7.614;2023-03-01T14:54:27;14.30;79.10
50570;DHT22;36525;49.398;7.614;2023-03-01T14:56:58;13.40;78.70
50570;DHT22;36525;49.398;7.614;2023-03-01T14:59:27;13.90;78.30
50570;DHT22;36525;49.398;7.614;2023-03-01T15:01:55;13.60;78.70
50570;DHT22;36525;49.398;7.614;2023-03-01T15:04:23;12.90;79.60
50570;DHT22;36525;49.398;7.614;2023-03-01T15:06:52;12.80;79.70
50570;DHT22;36525;49.398;7.614;2023-03-01T15:09:21;12.50;79.50
50570;DHT22;36525;49.398;7.614;2023-03-01T15:11:49;13.40;79.70
50570;DHT22;36525;49.398;7.614;2023-03-01T15:14:26;12.70;79.80
50570;DHT22;36525;49.398;7.614;2023-03-01T15:19:47;12.60;79.40
50570;DHT22;36525;49.398;7.614;2023-03-01T15:22:15;13.40;79.80
50570;DHT22;36525;49.398;7.614;2023-03-01T15:24:47;12.80;80.00
50570;DHT22;36525;49.398;7.614;2023-03-01T15:27:19;13.30;78.10
50570;DHT22;36525;49.398;7.614;2023-03-01T15:29:50;14.00;77.30
50570;DHT22;36525;49.398;7.614;2023-03-01T15:32:25;13.10;76.50
50570;DHT22;36525;49.398;7.614;2023-03-01T15:35:00;13.00;77.90
50570;DHT22;36525;49.398;7.614;2023-03-01T15:37:43;13.50;76.20
50570;DHT22;36525;49.398;7.614;2023-03-01T15:42:47;13.80;75.80
50570;DHT22;36525;49.398;7.614;2023-03-01T15:47:50;13.20;75.80
50570;DHT22;36525;49.398;7.614;2023-03-01T15:50:22;13.10;76.50
50570;DHT22;36525;49.398;7.614;2023-03-01T15:52:49;13.00;76.30
50570;DHT22;36525;49.398;7.614;2023-03-01T15:55:21;13.20;76.00
50570;DHT22;36525;49.398;7.614;2023-03-01T15:57:57;13.30;74.80
50570;DHT22;36525;49.398;7.614;2023-03-01T16:00:29;11.90;76.30
50570;DHT22;36525;49.398;7.614;2023-03-01T16:02:56;12.00;76.80
50570;DHT22;36525;49.398;7.614;2023-03-01T16:07:52;12.20;77.00
50570;DHT22;36525;49.398;7.614;2023-03-01T16:10:20;12.20;77.20
50570;DHT22;36525;49.398;7.614;2023-03-01T16:12:47;11.80;76.90
50570;DHT22;36525;49.398;7.614;2023-03-01T16:15:19;11.80;77.60
50570;DHT22;36525;49.398;7.614;2023-03-01T16:17:48;12.40;77.70
50570;DHT22;36525;49.398;7.614;2023-03-01T16:20:16;11.00;77.80
50570;DHT22;36525;49.398;7.614;2023-03-01T16:22:53;10.80;78.60
50570;DHT22;36525;49.398;7.614;2023-03-01T16:25:20;11.20;78.80
50570;DHT22;36525;49.398;7.614;2023-03-01T16:27:48;10.90;78.60
50570;DHT22;36525;49.398;7.614;2023-03-01T16:30:18;11.10;78.50
50570;DHT22;36525;49.398;7.614;2023-03-01T16:32:46;11.00;79.20
50570;DHT22;36525;49.398;7.614;2023-03-01T16:35:17;10.20;80.30
50570;DHT22;36525;49.398;7.614;2023-03-01T16:37:48;9.40;80.90
50570;DHT22;36525;49.398;7.614;2023-03-01T16:40:16;9.10;82.10
50570;DHT22;36525;49.398;7.614;2023-03-01T16:42:45;8.20;84.10
50570;DHT22;36525;49.398;7.614;2023-03-01T16:45:15;7.50;86.40
50570;DHT22;36525;49.398;7.614;2023-03-01T16:47:50;6.80;87.70
50570;DHT22;36525;49.398;7.614;2023-03-01T16:50:21;6.20;89.10
50570;DHT22;36525;49.398;7.614;2023-03-01T16:55:18;5.70;90.50
50570;DHT22;36525;49.398;7.614;2023-03-01T16:57:45;5.70;90.80
50570;DHT22;36525;49.398;7.614;2023-03-01T17:00:14;5.60;91.00
50570;DHT22;36525;49.398;7.614;2023-03-01T17:02:41;5.60;91.00
50570;DHT22;36525;49.398;7.614;2023-03-01T17:05:09;5.30;91.40
50570;DHT22;36525;49.398;7.614;2023-03-01T17:07:38;5.20;91.70
50570;DHT22;36525;49.398;7.614;2023-03-01T17:10:08;5.10;91.80
50570;DHT22;36525;49.398;7.614;2023-03-01T17:12:37;4.90;92.10
50570;DHT22;36525;49.398;7.614;2023-03-01T17:15:05;4.90;92.30
50570;DHT22;36525;49.398;7.614;2023-03-01T17:17:34;4.80;92.60
50570;DHT22;36525;49.398;7.614;2023-03-01T17:20:02;4.70;92.80
50570;DHT22;36525;49.398;7.614;2023-03-01T17:22:30;4.60;93.00
50570;DHT22;36525;49.398;7.614;2023-03-01T17:24:57;4.50;93.20
50570;DHT22;36525;49.398;7.614;2023-03-01T17:27:24;4.50;93.40
50570;DHT22;36525;49.398;7.614;2023-03-01T17:29:51;4.50;93.60
50570;DHT22;36525;49.398;7.614;2023-03-01T17:32:18;4.40;93.80
50570;DHT22;36525;49.398;7.614;2023-03-01T17:34:45;4.30;93.90
50570;DHT22;36525;49.398;7.614;2023-03-01T17:37:12;4.20;93.90
50570;DHT22;36525;49.398;7.614;2023-03-01T17:39:39;4.30;94.10
50570;DHT22;36525;49.398;7.614;2023-03-01T17:42:06;4.10;94.40
50570;DHT22;36525;49.398;7.614;2023-03-01T17:44:33;4.10;94.90
50570;DHT22;36525;49.398;7.614;2023-03-01T17:47:01;4.10;94.70
50570;DHT22;36525;49.398;7.614;2023-03-01T17:49:30;4.00;95.20
50570;DHT22;36525;49.398;7.614;2023-03-01T17:51:58;3.90;95.20
50570;DHT22;36525;49.398;7.614;2023-03-01T17:54:25;3.80;95.80
50570;DHT22;36525;49.398;7.614;2023-03-01T17:56:52;3.80;95.60
50570;DHT22;36525;49.398;7.614;2023-03-01T17:59:19;3.60;95.90
50570;DHT22;36525;49.398;7.614;2023-03-01T18:01:46;3.60;95.90
50570;DHT22;36525;49.398;7.614;2023-03-01T18:04:13;3.40;96.50
50570;DHT22;36525;49.398;7.614;2023-03-01T18:06:41;3.30;96.70
50570;DHT22;36525;49.398;7.614;2023-03-01T18:09:09;3.30;96.90
50570;DHT22;36525;49.398;7.614;2023-03-01T18:11:37;3.30;96.90
50570;DHT22;36525;49.398;7.614;2023-03-01T18:14:04;3.30;97.20
50570;DHT22;36525;49.398;7.614;2023-03-01T18:16:31;3.20;97.40
50570;DHT22;36525;49.398;7.614;2023-03-01T18:19:00;3.20;97.50
50570;DHT22;36525;49.398;7.614;2023-03-01T18:21:30;3.20;97.70
50570;DHT22;36525;49.398;7.614;2023-03-01T18:23:57;3.20;97.80